Time;durP1;ratioP1;P1;durP2;ratioP2;P2;SDS_P1;SDS_P2;PMS_P1;PMS_P2;Temp;Humidity;BMP_temperature;BMP_pressure;BME280_temperature;BME280_humidity;BME280_pressure;Samples;Min_cycle;Max_cycle;Signal;HPM_P1;HPM_P2
2021/01/31 00:00:44;;;;;;;17.77;16.47;;;4.50;99.90;;;;;;5014810;28;20581;-80
2021/01/31 00:03:12;;;;;;;16.67;15.47;;;4.50;99.90;;;;;;5014795;28;20468;-79
2021/01/31 00:05:39;;;;;;;17.37;16.07;;;4.40;99.90;;;;;;5032162;28;20477;-80
2021/01/31 00:08:07;;;;;;;17.47;16.13;;;4.40;99.90;;;;;;5031769;28;20971;-81
2021/01/31 00:10:33;;;;;;;16.73;15.53;;;4.40;99.90;;;;;;5014789;28;20439;-81
2021/01/31 00:13:01;;;;;;;17.80;16.40;;;4.40;99.90;;;;;;5015657;28;20485;-81
2021/01/31 00:15:31;;;;;;;17.00;15.70;;;4.40;99.90;;;;;;5014536;28;20196;-81
2021/01/31 00:17:58;;;;;;;16.77;15.50;;;4.40;99.90;;;;;;5032250;28;20453;-79
2021/01/31 00:20:27;;;;;;;16.67;15.47;;;4.30;99.90;;;;;;5014381;28;20481;-81
2021/01/31 00:22:54;;;;;;;15.77;14.57;;;4.20;99.90;;;;;;5032219;28;20438;-80
2021/01/31 00:25:20;;;;;;;15.13;14.13;;;4.30;99.90;;;;;;5014575;28;20879;-79
2021/01/31 00:27:47;;;;;;;15.03;14.03;;;4.20;99.90;;;;;;5032006;28;20459;-80
2021/01/31 00:30:17;;;;;;;16.07;15.07;;;4.20;99.90;;;;;;5032129;28;21296;-80
2021/01/31 00:32:45;;;;;;;15.70;14.63;;;4.20;99.90;;;;;;5039546;28;20493;-81
2021/01/31 00:35:12;;;;;;;15.10;14.10;;;4.20;99.90;;;;;;5014662;28;20817;-80
2021/01/31 00:37:38;;;;;;;15.20;14.20;;;4.10;99.90;;;;;;5029445;28;20527;-81
2021/01/31 00:40:07;;;;;;;15.50;14.50;;;4.10;99.90;;;;;;5014503;28;20979;-81
2021/01/31 00:42:33;;;;;;;14.80;13.80;;;4.10;99.90;;;;;;4994040;28;20455;-80
2021/01/31 00:44:59;;;;;;;15.73;14.63;;;4.10;99.90;;;;;;5005872;28;20475;-80
2021/01/31 00:47:26;;;;;;;15.33;14.17;;;4.10;99.90;;;;;;5013889;28;20462;-81
2021/01/31 00:49:53;;;;;;;15.43;14.37;;;4.20;99.90;;;;;;5013915;28;21001;-80
2021/01/31 00:52:21;;;;;;;15.07;14.07;;;4.20;99.90;;;;;;5014266;28;20959;-80
2021/01/31 00:54:48;;;;;;;15.30;14.23;;;4.20;99.90;;;;;;5008581;28;20446;-80
2021/01/31 00:57:15;;;;;;;14.83;13.83;;;4.10;99.90;;;;;;5015957;28;20561;-80
2021/01/31 00:59:41;;;;;;;14.93;13.93;;;4.10;99.90;;;;;;5031468;28;20442;-79
2021/01/31 01:02:11;;;;;;;14.90;13.90;;;4.10;99.90;;;;;;5014282;28;20604;-82
2021/01/31 01:04:39;;;;;;;14.80;13.80;;;4.00;99.90;;;;;;5014069;28;20482;-80
2021/01/31 01:07:10;;;;;;;15.50;14.50;;;4.00;99.90;;;;;;5016314;28;20454;-81
2021/01/31 01:09:37;;;;;;;15.27;14.17;;;3.90;99.90;;;;;;5013769;28;20859;-81
2021/01/31 01:12:05;;;;;;;15.10;14.20;;;3.90;99.90;;;;;;5014054;28;20818;-81
2021/01/31 01:14:31;;;;;;;14.83;13.83;;;3.90;99.90;;;;;;5013948;28;20884;-80
2021/01/31 01:16:58;;;;;;;14.40;13.47;;;3.80;99.90;;;;;;5018053;28;20450;-80
2021/01/31 01:19:24;;;;;;;15.50;14.40;;;3.80;99.90;;;;;;5016210;28;20483;-81
2021/01/31 01:21:51;;;;;;;14.67;13.63;;;3.80;99.90;;;;;;5017929;28;20516;-81
2021/01/31 01:24:18;;;;;;;14.90;13.80;;;3.80;99.90;;;;;;5017505;28;20500;-80
2021/01/31 01:26:45;;;;;;;15.50;14.40;;;3.80;99.90;;;;;;5018105;28;20806;-81
2021/01/31 01:29:11;;;;;;;15.37;14.07;;;3.80;99.90;;;;;;5035423;28;20460;-81
2021/01/31 01:31:38;;;;;;;14.87;13.87;;;3.80;99.90;;;;;;5017840;28;20453;-81
2021/01/31 01:34:06;;;;;;;14.67;13.67;;;3.80;99.90;;;;;;5035405;28;20521;-80
2021/01/31 01:36:32;;;;;;;14.73;13.73;;;3.80;99.90;;;;;;5035077;28;20431;-80
2021/01/31 01:38:59;;;;;;;15.23;14.23;;;3.80;99.90;;;;;;5017220;28;20943;-80
2021/01/31 01:41:26;;;;;;;15.17;14.17;;;3.70;99.90;;;;;;5017492;28;20470;-80
2021/01/31 01:43:53;;;;;;;14.77;13.87;;;3.70;99.90;;;;;;5017494;28;20474;-80
2021/01/31 01:46:32;;;;;;;15.33;14.30;;;3.70;99.90;;;;;;5035198;28;20488;-79
2021/01/31 01:49:03;;;;;;;15.10;14.10;;;3.70;99.90;;;;;;5017099;28;20488;-80
2021/01/31 01:51:36;;;;;;;16.33;15.13;;;3.70;99.90;;;;;;5009549;28;20470;-80
2021/01/31 01:54:04;;;;;;;15.10;14.10;;;3.70;99.90;;;;;;5009085;28;20466;-80
2021/01/31 01:56:36;;;;;;;15.93;14.77;;;3.70;99.90;;;;;;5034842;28;20489;-81
2021/01/31 01:59:03;;;;;;;16.40;15.20;;;3.70;99.90;;;;;;5017156;28;20469;-81
2021/01/31 02:01:31;;;;;;;17.30;16.00;;;3.70;99.90;;;;;;5015840;28;20823;-80
2021/01/31 02:04:00;;;;;;;16.07;14.87;;;3.70;99.90;;;;;;5025324;28;21033;-80
2021/01/31 02:06:28;;;;;;;16.37;15.17;;;3.70;99.90;;;;;;5034637;28;20446;-80
2021/01/31 02:08:55;;;;;;;15.93;14.73;;;3.80;99.90;;;;;;5016699;28;20470;-80
2021/01/31 02:11:22;;;;;;;15.43;14.27;;;3.80;99.90;;;;;;5034542;28;20924;-80
2021/01/31 02:13:52;;;;;;;16.10;14.90;;;3.80;99.90;;;;;;5016825;28;20541;-80
2021/01/31 02:16:24;;;;;;;16.67;15.37;;;3.80;99.90;;;;;;5016809;28;20528;-81
2021/01/31 02:19:00;;;;;;;16.70;15.37;;;3.80;99.90;;;;;;5034202;28;20988;-81
2021/01/31 02:21:51;;;;;;;16.37;15.17;;;3.70;99.90;;;;;;5016819;28;20859;-80
2021/01/31 02:24:39;;;;;;;17.53;16.13;;;3.80;99.90;;;;;;5016630;28;20899;-80
2021/01/31 02:27:32;;;;;;;17.13;15.83;;;3.70;99.90;;;;;;5016642;28;20540;-80
2021/01/31 02:30:20;;;;;;;17.70;16.30;;;3.70;99.90;;;;;;5033710;28;20446;-80
2021/01/31 02:33:21;;;;;;;17.00;15.50;;;3.70;99.90;;;;;;5035602;28;20442;-81
2021/01/31 02:35:49;;;;;;;16.53;15.23;;;3.70;99.90;;;;;;5028571;28;21003;-80
2021/01/31 02:38:21;;;;;;;17.37;16.00;;;3.70;99.90;;;;;;5016308;28;20472;-79
2021/01/31 02:40:55;;;;;;;16.90;15.60;;;3.80;99.90;;;;;;5016361;28;20457;-80
2021/01/31 02:43:32;;;;;;;16.90;15.50;;;3.80;99.90;;;;;;5016445;28;20507;-80
2021/01/31 02:46:07;;;;;;;17.23;15.83;;;3.70;99.90;;;;;;5016401;28;20470;-80
2021/01/31 02:48:36;;;;;;;17.83;16.43;;;3.70;99.90;;;;;;5013965;28;21037;-80
2021/01/31 02:51:07;;;;;;;18.00;16.50;;;3.70;99.90;;;;;;5016258;28;20456;-79
2021/01/31 02:53:37;;;;;;;17.43;15.97;;;3.70;99.90;;;;;;5033867;28;20449;-80
2021/01/31 02:56:08;;;;;;;19.33;17.70;;;3.70;99.90;;;;;;5033832;28;20499;-79
2021/01/31 02:58:38;;;;;;;19.87;18.10;;;3.70;99.90;;;;;;5033658;28;20974;-80
2021/01/31 03:01:11;;;;;;;19.00;17.30;;;3.60;99.90;;;;;;5016108;28;20489;-80
2021/01/31 03:03:42;;;;;;;19.03;17.23;;;3.60;99.90;;;;;;5033847;28;20993;-81
2021/01/31 03:06:12;;;;;;;18.50;16.90;;;3.60;99.90;;;;;;5033419;28;20446;-80
2021/01/31 03:08:42;;;;;;;18.80;17.20;;;3.60;99.90;;;;;;5015617;28;20522;-81
2021/01/31 03:11:12;;;;;;;19.43;17.23;;;3.60;99.90;;;;;;5033466;28;20449;-80
2021/01/31 03:13:48;;;;;;;19.70;17.90;;;3.60;99.90;;;;;;5033607;28;20440;-81
2021/01/31 03:16:19;;;;;;;19.70;18.00;;;3.50;99.90;;;;;;5033420;28;20441;-80
2021/01/31 03:18:54;;;;;;;19.37;17.77;;;3.60;99.90;;;;;;5026932;28;20462;-80
2021/01/31 03:21:24;;;;;;;20.93;19.13;;;3.50;99.90;;;;;;5032342;28;20526;-80
2021/01/31 03:23:59;;;;;;;18.33;16.83;;;3.50;99.90;;;;;;5015636;28;20460;-80
2021/01/31 03:26:33;;;;;;;19.43;17.83;;;3.50;99.90;;;;;;5015528;28;20461;-80
2021/01/31 03:28:59;;;;;;;19.50;17.90;;;3.50;99.90;;;;;;5032904;28;21043;-80
2021/01/31 03:31:29;;;;;;;19.87;18.17;;;3.50;99.90;;;;;;5015469;28;20530;-81
2021/01/31 03:34:02;;;;;;;20.77;18.87;;;3.50;99.90;;;;;;5015461;28;20447;-79
2021/01/31 03:36:29;;;;;;;21.00;19.17;;;3.40;99.90;;;;;;5032260;28;20429;-80
2021/01/31 03:38:56;;;;;;;19.87;18.23;;;3.40;99.90;;;;;;5014967;28;20479;-80
2021/01/31 03:41:27;;;;;;;19.80;18.10;;;3.30;99.90;;;;;;5014445;28;20454;-80
2021/01/31 03:43:53;;;;;;;20.30;18.60;;;3.30;99.90;;;;;;5015191;28;20450;-80
2021/01/31 03:46:25;;;;;;;20.03;18.23;;;3.30;99.90;;;;;;5032750;28;20433;-79
2021/01/31 03:48:56;;;;;;;20.83;19.03;;;3.30;99.90;;;;;;5014616;28;21028;-80
2021/01/31 03:51:23;;;;;;;20.00;18.20;;;3.20;99.90;;;;;;5033097;28;20450;-79
2021/01/31 03:53:54;;;;;;;20.20;18.50;;;3.20;99.90;;;;;;5015983;28;20453;-83
2021/01/31 03:56:24;;;;;;;20.87;19.13;;;3.20;99.90;;;;;;5026878;28;20459;-81
2021/01/31 03:58:54;;;;;;;19.70;18.10;;;3.10;99.90;;;;;;5028844;28;20483;-82
2021/01/31 04:01:23;;;;;;;20.43;18.77;;;3.00;99.90;;;;;;5037993;28;20442;-82
2021/01/31 04:03:56;;;;;;;20.37;18.67;;;3.00;99.90;;;;;;5028371;28;20466;-82
2021/01/31 04:06:27;;;;;;;20.37;18.57;;;3.00;99.90;;;;;;5027073;28;20576;-82
2021/01/31 04:08:55;;;;;;;20.33;18.53;;;3.00;99.90;;;;;;5004307;28;20482;-82
2021/01/31 04:11:34;;;;;;;19.63;17.93;;;3.10;99.90;;;;;;5013336;28;20458;-79
2021/01/31 04:14:08;;;;;;;19.30;17.60;;;3.10;99.90;;;;;;5008095;28;20455;-78
2021/01/31 04:16:40;;;;;;;19.60;17.93;;;3.00;99.90;;;;;;5028445;28;20565;-77
2021/01/31 04:19:06;;;;;;;20.10;18.40;;;3.10;99.90;;;;;;5014407;28;20471;-77
2021/01/31 04:21:34;;;;;;;19.33;17.60;;;3.10;99.90;;;;;;5021572;28;20495;-78
2021/01/31 04:24:00;;;;;;;19.97;18.27;;;3.20;99.90;;;;;;5023583;28;20441;-78
2021/01/31 04:26:26;;;;;;;20.03;18.33;;;3.30;99.90;;;;;;5032492;28;20453;-78
2021/01/31 04:28:53;;;;;;;20.33;18.53;;;3.30;99.90;;;;;;5014250;28;20572;-77
2021/01/31 04:31:19;;;;;;;20.67;18.87;;;3.30;99.90;;;;;;5030675;28;20560;-77
2021/01/31 04:33:45;;;;;;;19.90;18.27;;;3.30;99.90;;;;;;5014107;28;20451;-77
2021/01/31 04:36:12;;;;;;;20.73;18.93;;;3.30;99.90;;;;;;5030864;28;20440;-77
2021/01/31 04:38:39;;;;;;;20.90;19.10;;;3.30;99.90;;;;;;5031218;28;20452;-77
2021/01/31 04:41:05;;;;;;;20.93;19.13;;;3.30;99.90;;;;;;5031785;28;20434;-78
2021/01/31 04:43:32;;;;;;;20.43;18.63;;;3.20;99.90;;;;;;5013255;28;20449;-78
2021/01/31 04:45:59;;;;;;;20.67;18.73;;;3.20;99.90;;;;;;5012970;28;20471;-78
2021/01/31 04:48:35;;;;;;;19.20;17.60;;;3.20;99.90;;;;;;5031550;28;20504;-77
2021/01/31 04:51:22;;;;;;;20.50;18.73;;;3.20;99.90;;;;;;5003933;28;20452;-77
2021/01/31 04:54:05;;;;;;;20.60;18.70;;;3.20;99.90;;;;;;5012080;28;20440;-78
2021/01/31 04:56:46;;;;;;;20.77;18.63;;;3.20;99.90;;;;;;5030454;28;20439;-77
2021/01/31 04:59:23;;;;;;;20.33;18.53;;;3.20;99.90;;;;;;5011683;28;20470;-77
2021/01/31 05:01:54;;;;;;;20.93;19.13;;;3.10;99.90;;;;;;5034951;28;20460;-77
2021/01/31 05:04:24;;;;;;;20.37;18.47;;;3.20;99.90;;;;;;5029509;28;20467;-77
2021/01/31 05:06:55;;;;;;;21.47;19.57;;;3.20;99.90;;;;;;5012973;28;20885;-76
2021/01/31 05:09:24;;;;;;;21.10;19.20;;;3.20;99.90;;;;;;5011183;28;20982;-75
2021/01/31 05:11:58;;;;;;;21.10;19.10;;;3.20;99.90;;;;;;5031280;28;20430;-76
2021/01/31 05:14:45;;;;;;;20.70;18.90;;;3.20;99.90;;;;;;5027933;28;20424;-75
2021/01/31 05:17:13;;;;;;;21.80;19.83;;;3.20;99.90;;;;;;5009795;28;20469;-75
2021/01/31 05:19:40;;;;;;;19.80;18.10;;;3.30;99.90;;;;;;5020883;28;20442;-75
2021/01/31 05:22:06;;;;;;;21.57;19.47;;;3.30;99.90;;;;;;5029339;28;20956;-76
2021/01/31 05:24:33;;;;;;;22.07;20.13;;;3.30;99.90;;;;;;5020412;28;20475;-76
2021/01/31 05:27:03;;;;;;;21.20;19.23;;;3.20;99.90;;;;;;5012383;28;20450;-77
2021/01/31 05:29:34;;;;;;;21.23;19.13;;;3.20;99.90;;;;;;5017650;28;20475;-76
2021/01/31 05:32:05;;;;;;;21.77;19.77;;;3.30;99.90;;;;;;5021199;28;20935;-76
2021/01/31 05:34:33;;;;;;;21.63;19.73;;;3.20;99.90;;;;;;5009730;28;20446;-78
2021/01/31 05:37:01;;;;;;;22.00;20.07;;;3.30;99.90;;;;;;5030154;28;20438;-79
2021/01/31 05:39:39;;;;;;;22.13;20.17;;;3.30;99.90;;;;;;5025891;28;20454;-79
2021/01/31 05:42:08;;;;;;;21.93;19.97;;;3.20;99.90;;;;;;5010431;28;20455;-79
2021/01/31 05:44:34;;;;;;;23.10;20.87;;;3.20;99.90;;;;;;5028247;28;20474;-79
2021/01/31 05:47:14;;;;;;;22.40;20.33;;;3.20;99.90;;;;;;5006213;28;20841;-79
2021/01/31 05:49:43;;;;;;;21.53;19.63;;;3.30;99.90;;;;;;5028210;28;20943;-79
2021/01/31 05:52:27;;;;;;;21.20;19.30;;;3.30;99.90;;;;;;5022954;28;20439;-79
2021/01/31 05:54:56;;;;;;;23.20;21.10;;;3.30;99.90;;;;;;5019785;28;20430;-79
2021/01/31 05:57:25;;;;;;;22.67;20.57;;;3.30;99.90;;;;;;5023385;28;20506;-79
2021/01/31 05:59:52;;;;;;;23.87;21.57;;;3.30;99.90;;;;;;5026958;28;20445;-79
2021/01/31 06:02:27;;;;;;;22.93;20.80;;;3.30;99.90;;;;;;5011085;28;20443;-80
2021/01/31 06:05:15;;;;;;;22.30;20.20;;;3.40;99.90;;;;;;5010615;28;20826;-80
2021/01/31 06:07:44;;;;;;;24.43;22.03;;;3.40;99.90;;;;;;5015930;28;20472;-79
2021/01/31 06:10:14;;;;;;;23.50;21.20;;;3.40;99.90;;;;;;5016858;28;20534;-79
2021/01/31 06:12:42;;;;;;;22.90;20.70;;;3.30;99.90;;;;;;5029732;28;20436;-79
2021/01/31 06:15:17;;;;;;;23.53;21.13;;;3.30;99.90;;;;;;5016747;28;20448;-78
2021/01/31 06:17:53;;;;;;;22.93;20.83;;;3.30;99.90;;;;;;5022866;28;20460;-79
2021/01/31 06:20:28;;;;;;;23.13;20.83;;;3.30;99.90;;;;;;5011060;28;20446;-79
2021/01/31 06:22:54;;;;;;;24.27;21.97;;;3.30;99.90;;;;;;5016812;28;20450;-80
2021/01/31 06:25:37;;;;;;;22.83;20.73;;;3.30;99.90;;;;;;5010090;28;20480;-79
2021/01/31 06:28:17;;;;;;;22.30;20.10;;;3.40;99.90;;;;;;5013168;28;21019;-79
2021/01/31 06:30:50;;;;;;;23.03;20.83;;;3.40;99.90;;;;;;5010701;28;20452;-80
2021/01/31 06:33:16;;;;;;;22.53;20.53;;;3.40;99.90;;;;;;5016293;28;20487;-80
2021/01/31 06:35:44;;;;;;;24.63;22.23;;;3.40;99.90;;;;;;5016622;28;20443;-79
2021/01/31 06:38:28;;;;;;;24.37;22.00;;;3.50;99.90;;;;;;5016648;28;20617;-80
2021/01/31 06:41:08;;;;;;;24.90;22.50;;;3.50;99.90;;;;;;5045626;28;20445;-76
2021/01/31 06:43:48;;;;;;;25.33;22.73;;;3.50;99.90;;;;;;5046244;28;20933;-76
2021/01/31 06:46:22;;;;;;;25.73;23.27;;;3.40;99.90;;;;;;5035895;28;20916;-76
2021/01/31 06:49:02;;;;;;;23.53;21.13;;;3.40;99.90;;;;;;5030493;28;20523;-77
2021/01/31 06:51:49;;;;;;;24.77;22.27;;;3.30;99.90;;;;;;5039030;28;20452;-77
2021/01/31 06:54:39;;;;;;;24.03;21.80;;;3.30;99.90;;;;;;5020353;28;20458;-77
2021/01/31 06:57:57;;;;;;;25.30;22.80;;;3.30;99.90;;;;;;5027047;28;20443;-77
2021/01/31 07:01:03;;;;;;;24.77;22.43;;;3.30;99.90;;;;;;5028745;28;20431;-78
2021/01/31 07:03:54;;;;;;;25.63;23.13;;;3.30;99.90;;;;;;5018816;28;20455;-77
2021/01/31 07:06:34;;;;;;;24.30;21.90;;;3.30;99.90;;;;;;5038720;28;20982;-77
2021/01/31 07:09:14;;;;;;;24.20;21.90;;;3.20;99.90;;;;;;5039297;28;21065;-77
2021/01/31 07:11:47;;;;;;;24.37;22.07;;;3.30;99.90;;;;;;5028210;28;20448;-77
2021/01/31 07:14:32;;;;;;;23.97;21.67;;;3.30;99.90;;;;;;5018984;28;20472;-77
2021/01/31 07:17:04;;;;;;;26.43;23.83;;;3.30;99.90;;;;;;5039560;28;20456;-77
2021/01/31 07:19:33;;;;;;;24.80;22.50;;;3.30;99.90;;;;;;5024539;28;20463;-78
2021/01/31 07:22:04;;;;;;;26.17;23.77;;;3.30;99.90;;;;;;5011884;28;20868;-77
2021/01/31 07:24:40;;;;;;;23.43;21.47;;;3.30;99.90;;;;;;5019353;28;20468;-77
2021/01/31 07:27:13;;;;;;;23.90;21.70;;;3.30;99.90;;;;;;5018268;28;20446;-77
2021/01/31 07:29:44;;;;;;;25.60;22.90;;;3.20;99.90;;;;;;5018132;28;20450;-77
2021/01/31 07:32:18;;;;;;;24.10;21.93;;;3.20;99.90;;;;;;5012692;28;20526;-76
2021/01/31 07:34:52;;;;;;;23.30;21.33;;;3.30;99.90;;;;;;5033063;28;20441;-77
2021/01/31 07:37:20;;;;;;;24.93;22.70;;;3.30;99.90;;;;;;5035452;28;20443;-77
2021/01/31 07:39:57;;;;;;;23.50;21.40;;;3.30;99.90;;;;;;5013943;28;21013;-77
2021/01/31 07:42:26;;;;;;;25.33;23.03;;;3.40;99.90;;;;;;5028251;28;20959;-77
2021/01/31 07:44:59;;;;;;;25.57;23.17;;;3.40;99.90;;;;;;5018480;28;20524;-76
2021/01/31 07:47:26;;;;;;;24.10;21.83;;;3.40;99.90;;;;;;5024676;28;20423;-77
2021/01/31 07:50:21;;;;;;;24.43;22.23;;;3.50;99.90;;;;;;5029280;28;20466;-76
2021/01/31 07:52:53;;;;;;;22.97;20.97;;;3.50;99.90;;;;;;5026149;28;20448;-77
2021/01/31 07:55:33;;;;;;;24.00;21.90;;;3.50;99.90;;;;;;5019567;28;20457;-77
2021/01/31 07:58:06;;;;;;;24.47;22.27;;;3.50;99.90;;;;;;5034706;28;21017;-77
2021/01/31 08:00:40;;;;;;;23.53;21.43;;;3.50;99.90;;;;;;5035841;28;20513;-78
2021/01/31 08:03:19;;;;;;;24.13;22.03;;;3.50;99.90;;;;;;5009501;28;20502;-77
2021/01/31 08:05:59;;;;;;;23.43;21.30;;;3.60;99.90;;;;;;5030988;28;20465;-79
2021/01/31 08:08:50;;;;;;;23.27;21.27;;;3.60;99.90;;;;;;5030736;28;20458;-77
2021/01/31 08:11:55;;;;;;;23.20;21.13;;;3.70;99.90;;;;;;5008289;28;20465;-80
2021/01/31 08:14:58;;;;;;;24.20;22.00;;;3.60;99.90;;;;;;5014541;28;20828;-79
2021/01/31 08:17:43;;;;;;;22.03;20.13;;;3.60;99.90;;;;;;5032357;28;20445;-78
2021/01/31 08:20:41;;;;;;;22.37;20.37;;;3.50;99.90;;;;;;5014362;28;20456;-78
2021/01/31 08:23:55;;;;;;;21.47;19.63;;;3.50;99.90;;;;;;5009619;28;20446;-80
2021/01/31 08:26:52;;;;;;;21.37;19.57;;;3.70;99.90;;;;;;5043778;28;20484;-79
2021/01/31 08:29:25;;;;;;;21.17;19.37;;;3.70;99.90;;;;;;5045401;28;20478;-78
2021/01/31 08:32:12;;;;;;;22.20;20.30;;;3.80;99.90;;;;;;5031280;28;20438;-79
2021/01/31 08:35:14;;;;;;;20.87;19.17;;;3.80;99.90;;;;;;5029648;28;20426;-79
2021/01/31 08:37:45;;;;;;;21.27;19.47;;;3.90;99.90;;;;;;5013344;28;20529;-80
2021/01/31 08:40:32;;;;;;;21.10;19.33;;;3.80;99.90;;;;;;5020390;28;20838;-79
2021/01/31 08:42:58;;;;;;;22.77;20.63;;;3.90;99.90;;;;;;5014447;28;20445;-80
2021/01/31 08:45:44;;;;;;;21.30;19.40;;;3.90;99.90;;;;;;5031336;28;20532;-79
2021/01/31 08:48:10;;;;;;;21.40;19.50;;;3.90;99.90;;;;;;5031345;28;21014;-78
2021/01/31 08:50:47;;;;;;;20.37;18.67;;;4.00;99.90;;;;;;5032655;28;20790;-79
2021/01/31 08:53:14;;;;;;;21.73;19.57;;;4.10;99.90;;;;;;5032143;28;20507;-79
2021/01/31 08:55:40;;;;;;;21.23;19.30;;;4.10;99.90;;;;;;5014221;28;20454;-78
2021/01/31 08:58:21;;;;;;;21.07;19.23;;;4.20;99.90;;;;;;5010898;28;20471;-77
2021/01/31 09:00:49;;;;;;;20.87;19.07;;;4.20;99.90;;;;;;5015166;28;20494;-78
2021/01/31 09:03:22;;;;;;;21.97;20.07;;;4.20;99.90;;;;;;5013664;28;20446;-79
2021/01/31 09:06:16;;;;;;;;;;;;;;;;;;;;;
2021/01/31 09:08:59;;;;;;;20.90;19.20;;;4.30;99.90;;;;;;5007433;28;20489;-78
2021/01/31 09:11:39;;;;;;;20.33;18.73;;;4.40;99.90;;;;;;5005906;28;20459;-79
2021/01/31 09:14:13;;;;;;;19.47;17.87;;;4.40;99.90;;;;;;5031418;28;20438;-79
2021/01/31 09:16:40;;;;;;;19.67;18.07;;;4.40;99.90;;;;;;5032299;28;20446;-79
2021/01/31 09:19:12;;;;;;;20.20;18.60;;;4.50;99.90;;;;;;5022173;28;20461;-78
2021/01/31 09:21:49;;;;;;;20.97;19.37;;;4.50;99.90;;;;;;5003534;28;20546;-78
2021/01/31 09:24:23;;;;;;;19.43;17.83;;;4.40;99.90;;;;;;5013463;28;20453;-79
2021/01/31 09:26:56;;;;;;;19.40;17.90;;;4.40;99.90;;;;;;5029807;28;20449;-79
2021/01/31 09:29:26;;;;;;;19.30;17.70;;;4.40;99.90;;;;;;5013635;28;20271;-79
2021/01/31 09:32:03;;;;;;;19.23;17.63;;;4.40;99.90;;;;;;5014408;28;20507;-79
2021/01/31 09:34:38;;;;;;;18.73;17.33;;;4.40;99.90;;;;;;5030095;28;20496;-79
2021/01/31 09:37:20;;;;;;;19.23;17.63;;;4.40;99.90;;;;;;5038235;28;20920;-79
2021/01/31 09:39:48;;;;;;;19.33;17.73;;;4.50;99.90;;;;;;5022654;28;20426;-77
2021/01/31 09:42:15;;;;;;;21.00;19.47;;;4.70;99.90;;;;;;5017988;28;20204;-77
2021/01/31 09:44:59;;;;;;;21.23;19.73;;;4.70;99.90;;;;;;5027718;28;20466;-77
2021/01/31 09:47:49;;;;;;;;;;;;;;;;;;;;;
2021/01/31 09:50:30;;;;;;;19.13;17.57;;;4.70;99.90;;;;;;5006478;28;20544;-78
2021/01/31 09:53:11;;;;;;;19.57;18.13;;;4.70;99.90;;;;;;5018615;28;20919;-78
2021/01/31 09:59:22;;;;;;;18.97;17.47;;;4.80;99.90;;;;;;5016626;28;20458;-80
2021/01/31 10:02:04;;;;;;;19.43;17.93;;;4.90;99.90;;;;;;5031318;28;20496;-78
2021/01/31 10:04:39;;;;;;;19.03;17.63;;;4.80;99.90;;;;;;5031753;28;20203;-79
2021/01/31 10:10:41;;;;;;;18.77;17.27;;;4.70;99.90;;;;;;4985616;28;20869;-81
2021/01/31 10:13:46;;;;;;;19.80;18.27;;;4.80;99.90;;;;;;5031336;28;20480;-79
2021/01/31 10:16:21;;;;;;;19.23;17.70;;;4.80;99.90;;;;;;4977659;28;20464;-80
2021/01/31 10:18:48;;;;;;;19.10;17.63;;;4.90;99.90;;;;;;5029790;28;20592;-81
2021/01/31 10:21:25;;;;;;;19.40;17.80;;;4.90;99.90;;;;;;5033765;28;20200;-80
2021/01/31 10:24:01;;;;;;;19.50;18.00;;;4.90;99.90;;;;;;5034976;28;20203;-80
2021/01/31 10:26:29;;;;;;;18.80;17.30;;;4.90;99.90;;;;;;5034284;28;20223;-81
2021/01/31 10:28:58;;;;;;;19.83;18.23;;;4.90;99.90;;;;;;5016358;28;20311;-80
2021/01/31 10:31:27;;;;;;;19.50;17.90;;;4.80;99.90;;;;;;5016771;28;20200;-80
2021/01/31 10:33:54;;;;;;;19.80;18.13;;;4.80;99.90;;;;;;5030109;28;20457;-79
2021/01/31 10:36:28;;;;;;;20.17;18.57;;;4.90;99.90;;;;;;5031187;28;20196;-80
2021/01/31 10:38:56;;;;;;;20.53;18.63;;;5.00;99.90;;;;;;5042998;28;20251;-80
2021/01/31 10:41:23;;;;;;;19.40;17.90;;;5.10;99.90;;;;;;5034379;28;20989;-80
2021/01/31 10:44:02;;;;;;;19.83;18.33;;;5.00;99.90;;;;;;5027831;28;21001;-80
2021/01/31 10:46:29;;;;;;;19.60;18.10;;;5.10;99.90;;;;;;5014107;28;20463;-80
2021/01/31 10:48:56;;;;;;;20.00;18.50;;;5.10;99.90;;;;;;5026424;28;20232;-79
2021/01/31 10:51:29;;;;;;;19.67;18.20;;;5.20;99.90;;;;;;5015782;28;20200;-80
2021/01/31 10:54:18;;;;;;;20.70;19.13;;;5.30;99.90;;;;;;5015045;28;20204;-80
2021/01/31 11:09:10;;;;;;;20.43;18.53;;;6.20;99.90;;;;;;4913863;29;20219;-80
2021/01/31 11:11:42;;;;;;;19.20;17.60;;;6.40;99.90;;;;;;4924091;28;20207;-80
2021/01/31 11:14:11;;;;;;;19.50;17.90;;;6.60;99.90;;;;;;5033778;28;20204;-78
2021/01/31 11:16:38;;;;;;;20.87;19.07;;;6.60;99.90;;;;;;5027626;28;20190;-81
2021/01/31 11:19:04;;;;;;;19.03;17.43;;;6.60;99.90;;;;;;5030739;28;20746;-81
2021/01/31 11:21:30;;;;;;;18.87;17.37;;;6.50;99.90;;;;;;5016316;28;20204;-80
2021/01/31 11:24:00;;;;;;;21.07;19.13;;;6.50;99.90;;;;;;5013633;28;20255;-79
2021/01/31 11:26:27;;;;;;;20.37;18.57;;;6.20;99.90;;;;;;5008266;28;20212;-77
2021/01/31 11:28:54;;;;;;;20.10;18.47;;;6.10;99.90;;;;;;5033889;28;20262;-78
2021/01/31 11:31:21;;;;;;;18.93;17.43;;;6.00;99.90;;;;;;5032335;28;20201;-77
2021/01/31 11:33:50;;;;;;;20.13;18.27;;;6.00;99.90;;;;;;5008590;28;20198;-77
2021/01/31 11:36:17;;;;;;;19.67;18.07;;;5.90;99.90;;;;;;5028526;28;20193;-77
2021/01/31 11:38:43;;;;;;;18.33;16.83;;;5.90;99.90;;;;;;5015556;28;20739;-78
2021/01/31 11:41:10;;;;;;;19.60;18.07;;;5.80;99.90;;;;;;5011200;28;20568;-77
2021/01/31 11:43:36;;;;;;;21.23;19.23;;;5.70;99.90;;;;;;5028365;28;20197;-77
2021/01/31 11:46:04;;;;;;;20.53;18.83;;;5.60;99.90;;;;;;5007349;28;20689;-77
2021/01/31 11:48:30;;;;;;;20.30;18.60;;;5.60;99.90;;;;;;5043500;28;20227;-77
2021/01/31 11:50:57;;;;;;;19.93;18.13;;;5.50;99.90;;;;;;5033827;28;20242;-78
2021/01/31 11:53:23;;;;;;;19.40;17.80;;;5.60;99.90;;;;;;5013626;28;20418;-78
2021/01/31 11:55:50;;;;;;;19.63;18.03;;;5.50;99.90;;;;;;5029515;28;20187;-76
2021/01/31 11:58:16;;;;;;;18.83;17.33;;;5.60;99.90;;;;;;5031857;28;20271;-78
2021/01/31 12:00:43;;;;;;;20.53;18.80;;;5.60;99.90;;;;;;5006830;28;20207;-78
2021/01/31 12:03:10;;;;;;;20.13;18.50;;;5.60;99.90;;;;;;5031789;28;20704;-78
2021/01/31 12:05:37;;;;;;;20.67;18.97;;;5.60;99.90;;;;;;5013346;28;20654;-78
2021/01/31 12:08:04;;;;;;;20.10;18.40;;;5.60;99.90;;;;;;5030584;28;20216;-78
2021/01/31 12:10:32;;;;;;;19.77;18.03;;;5.60;99.90;;;;;;5007865;28;20192;-78
2021/01/31 12:12:58;;;;;;;20.93;19.13;;;5.50;99.90;;;;;;5012241;28;20680;-77
2021/01/31 12:15:25;;;;;;;21.73;19.93;;;5.50;99.90;;;;;;5012553;28;20255;-79
2021/01/31 12:17:51;;;;;;;20.23;18.50;;;5.40;99.90;;;;;;5016518;28;20240;-78
2021/01/31 12:20:19;;;;;;;21.03;19.23;;;5.40;99.90;;;;;;5031239;28;20207;-77
2021/01/31 12:22:47;;;;;;;21.00;19.30;;;5.40;99.90;;;;;;5029255;28;20200;-78
2021/01/31 12:25:15;;;;;;;20.17;18.37;;;5.50;99.90;;;;;;5028147;28;20646;-79
2021/01/31 12:27:43;;;;;;;21.33;19.63;;;5.60;99.90;;;;;;5030309;28;20231;-77
2021/01/31 12:30:11;;;;;;;21.87;19.97;;;5.60;99.90;;;;;;5012054;28;20727;-77
2021/01/31 12:32:38;;;;;;;21.33;19.47;;;5.60;99.90;;;;;;5032032;28;20195;-78
2021/01/31 12:35:05;;;;;;;21.70;19.80;;;5.60;99.90;;;;;;5011620;28;20282;-78
2021/01/31 12:37:32;;;;;;;21.57;19.87;;;5.60;99.90;;;;;;5009574;28;20292;-78
2021/01/31 12:39:58;;;;;;;21.97;20.10;;;5.60;99.90;;;;;;5013666;28;20605;-77
2021/01/31 12:42:24;;;;;;;20.07;18.43;;;5.60;99.90;;;;;;5013808;28;20196;-77
2021/01/31 12:44:51;;;;;;;20.97;19.27;;;5.50;99.90;;;;;;5030499;28;20617;-78
2021/01/31 12:47:17;;;;;;;20.60;18.90;;;5.60;99.90;;;;;;5013305;28;20207;-77
2021/01/31 12:49:44;;;;;;;22.20;20.30;;;5.60;99.90;;;;;;5015234;28;20684;-82
2021/01/31 12:52:11;;;;;;;21.07;19.37;;;5.60;99.90;;;;;;5009373;28;20200;-78
2021/01/31 12:54:39;;;;;;;20.07;18.47;;;5.70;99.90;;;;;;5012931;28;20212;-77
2021/01/31 12:57:06;;;;;;;19.30;17.70;;;5.70;99.90;;;;;;5013548;28;20195;-77
2021/01/31 12:59:32;;;;;;;20.40;18.67;;;5.70;99.90;;;;;;5012156;28;20274;-77
2021/01/31 13:01:58;;;;;;;20.00;18.30;;;5.70;99.90;;;;;;5014547;28;20552;-77
2021/01/31 13:04:25;;;;;;;20.30;18.40;;;5.80;99.90;;;;;;5014629;28;20192;-76
2021/01/31 13:06:51;;;;;;;19.83;18.23;;;5.90;99.90;;;;;;5012847;28;20227;-77
2021/01/31 13:09:17;;;;;;;19.03;17.33;;;6.00;99.90;;;;;;5027779;28;20219;-76
2021/01/31 13:11:45;;;;;;;17.60;16.20;;;6.00;99.90;;;;;;5008969;28;20207;-78
2021/01/31 13:14:11;;;;;;;18.87;17.37;;;6.10;99.90;;;;;;5023291;28;20207;-77
2021/01/31 13:16:37;;;;;;;18.90;17.40;;;6.20;99.90;;;;;;5024480;28;20658;-77
2021/01/31 13:19:04;;;;;;;18.23;16.73;;;6.30;99.90;;;;;;5015826;28;20215;-77
2021/01/31 13:21:31;;;;;;;18.47;16.77;;;6.30;99.90;;;;;;5036153;28;20632;-77
2021/01/31 13:23:58;;;;;;;17.67;16.10;;;6.30;99.90;;;;;;5036908;28;20196;-78